sensor_id;sensor_type;location;lat;lon;timestamp;P1;durP1;ratioP1;P2;durP2;ratioP2
19339;SDS011;9804;52.350;6.684;2024-01-11T00:00:14;21.93;;;8.50;;
19339;SDS011;9804;52.350;6.684;2024-01-11T00:02:40;19.30;;;7.97;;
19339;SDS011;9804;52.350;6.684;2024-01-11T00:05:05;18.80;;;8.60;;
19339;SDS011;9804;52.350;6.684;2024-01-11T00:07:32;21.97;;;7.90;;
19339;SDS011;9804;52.350;6.684;2024-01-11T00:09:57;19.50;;;8.37;;
19339;SDS011;9804;52.350;6.684;2024-01-11T00:12:23;18.30;;;7.57;;
19339;SDS011;9804;52.350;6.684;2024-01-11T00:14:48;16.93;;;7.83;;
19339;SDS011;9804;52.350;6.684;2024-01-11T00:17:13;23.43;;;9.17;;
19339;SDS011;9804;52.350;6.684;2024-01-11T00:19:40;15.90;;;7.93;;
19339;SDS011;9804;52.350;6.684;2024-01-11T00:22:06;20.13;;;8.10;;
19339;SDS011;9804;52.350;6.684;2024-01-11T00:24:31;21.77;;;8.23;;
19339;SDS011;9804;52.350;6.684;2024-01-11T00:26:57;19.67;;;7.33;;
19339;SDS011;9804;52.350;6.684;2024-01-11T00:29:22;18.63;;;8.07;;
19339;SDS011;9804;52.350;6.684;2024-01-11T00:31:47;22.03;;;7.73;;
19339;SDS011;9804;52.350;6.684;2024-01-11T00:34:13;17.87;;;7.87;;
19339;SDS011;9804;52.350;6.684;2024-01-11T00:36:38;22.87;;;7.90;;
19339;SDS011;9804;52.350;6.684;2024-01-11T00:39:04;20.73;;;9.00;;
19339;SDS011;9804;52.350;6.684;2024-01-11T00:41:29;22.90;;;8.17;;
19339;SDS011;9804;52.350;6.684;2024-01-11T00:43:55;22.20;;;9.20;;
19339;SDS011;9804;52.350;6.684;2024-01-11T00:46:20;18.37;;;8.13;;
19339;SDS011;9804;52.350;6.684;2024-01-11T00:48:45;21.10;;;8.70;;
19339;SDS011;9804;52.350;6.684;2024-01-11T00:51:11;21.77;;;9.17;;
19339;SDS011;9804;52.350;6.684;2024-01-11T00:53:36;21.07;;;8.07;;
19339;SDS011;9804;52.350;6.684;2024-01-11T00:56:01;20.67;;;8.23;;
19339;SDS011;9804;52.350;6.684;2024-01-11T00:58:27;25.93;;;8.67;;
19339;SDS011;9804;52.350;6.684;2024-01-11T01:00:53;24.70;;;9.33;;
19339;SDS011;9804;52.350;6.684;2024-01-11T01:03:19;20.83;;;8.40;;
19339;SDS011;9804;52.350;6.684;2024-01-11T01:05:46;23.27;;;8.50;;
19339;SDS011;9804;52.350;6.684;2024-01-11T01:08:11;21.40;;;8.73;;
19339;SDS011;9804;52.350;6.684;2024-01-11T01:10:37;21.93;;;9.03;;
19339;SDS011;9804;52.350;6.684;2024-01-11T01:13:03;23.57;;;8.30;;
19339;SDS011;9804;52.350;6.684;2024-01-11T01:15:28;22.20;;;8.43;;
19339;SDS011;9804;52.350;6.684;2024-01-11T01:17:54;21.87;;;8.80;;
19339;SDS011;9804;52.350;6.684;2024-01-11T01:20:19;20.33;;;8.53;;
19339;SDS011;9804;52.350;6.684;2024-01-11T01:22:44;22.37;;;8.77;;
19339;SDS011;9804;52.350;6.684;2024-01-11T01:25:10;25.27;;;10.57;;
19339;SDS011;9804;52.350;6.684;2024-01-11T01:27:35;23.23;;;9.00;;
19339;SDS011;9804;52.350;6.684;2024-01-11T01:30:01;18.70;;;8.00;;
19339;SDS011;9804;52.350;6.684;2024-01-11T01:32:27;23.50;;;8.83;;
19339;SDS011;9804;52.350;6.684;2024-01-11T01:34:52;19.97;;;8.37;;
19339;SDS011;9804;52.350;6.684;2024-01-11T01:37:17;24.43;;;8.37;;
19339;SDS011;9804;52.350;6.684;2024-01-11T01:39:43;20.93;;;8.93;;
19339;SDS011;9804;52.350;6.684;2024-01-11T01:42:08;25.50;;;11.37;;
19339;SDS011;9804;52.350;6.684;2024-01-11T01:44:34;26.43;;;8.80;;
19339;SDS011;9804;52.350;6.684;2024-01-11T01:47:00;21.10;;;8.27;;
19339;SDS011;9804;52.350;6.684;2024-01-11T01:49:26;26.37;;;9.93;;
19339;SDS011;9804;52.350;6.684;2024-01-11T01:51:52;21.27;;;8.73;;
19339;SDS011;9804;52.350;6.684;2024-01-11T01:54:18;19.40;;;7.67;;
19339;SDS011;9804;52.350;6.684;2024-01-11T01:56:45;23.60;;;8.57;;
19339;SDS011;9804;52.350;6.684;2024-01-11T01:59:11;27.00;;;9.70;;
19339;SDS011;9804;52.350;6.684;2024-01-11T02:01:37;26.63;;;9.87;;
19339;SDS011;9804;52.350;6.684;2024-01-11T02:04:03;22.87;;;8.50;;
19339;SDS011;9804;52.350;6.684;2024-01-11T02:06:29;22.37;;;8.60;;
19339;SDS011;9804;52.350;6.684;2024-01-11T02:08:59;22.60;;;8.87;;
19339;SDS011;9804;52.350;6.684;2024-01-11T02:11:26;23.33;;;9.43;;
19339;SDS011;9804;52.350;6.684;2024-01-11T02:13:53;22.43;;;9.27;;
19339;SDS011;9804;52.350;6.684;2024-01-11T02:16:18;19.63;;;8.43;;
19339;SDS011;9804;52.350;6.684;2024-01-11T02:18:44;26.10;;;9.73;;
19339;SDS011;9804;52.350;6.684;2024-01-11T02:21:10;22.30;;;9.17;;
19339;SDS011;9804;52.350;6.684;2024-01-11T02:23:41;26.20;;;10.63;;
19339;SDS011;9804;52.350;6.684;2024-01-11T02:26:10;29.20;;;13.20;;
19339;SDS011;9804;52.350;6.684;2024-01-11T02:28:37;26.40;;;12.83;;
19339;SDS011;9804;52.350;6.684;2024-01-11T02:31:02;29.47;;;12.93;;
19339;SDS011;9804;52.350;6.684;2024-01-11T02:33:28;27.97;;;12.47;;
19339;SDS011;9804;52.350;6.684;2024-01-11T02:35:53;27.87;;;13.13;;
19339;SDS011;9804;52.350;6.684;2024-01-11T02:38:19;29.17;;;13.27;;
19339;SDS011;9804;52.350;6.684;2024-01-11T02:40:45;28.63;;;13.00;;
19339;SDS011;9804;52.350;6.684;2024-01-11T02:43:11;31.67;;;13.23;;
19339;SDS011;9804;52.350;6.684;2024-01-11T02:45:37;27.77;;;13.03;;
19339;SDS011;9804;52.350;6.684;2024-01-11T02:48:03;29.43;;;13.17;;
19339;SDS011;9804;52.350;6.684;2024-01-11T02:50:28;30.93;;;13.27;;
19339;SDS011;9804;52.350;6.684;2024-01-11T02:52:54;27.90;;;13.47;;
19339;SDS011;9804;52.350;6.684;2024-01-11T02:55:19;31.70;;;13.93;;
19339;SDS011;9804;52.350;6.684;2024-01-11T02:57:45;28.50;;;13.50;;
19339;SDS011;9804;52.350;6.684;2024-01-11T03:00:10;29.00;;;12.97;;
19339;SDS011;9804;52.350;6.684;2024-01-11T03:02:37;26.10;;;12.00;;
19339;SDS011;9804;52.350;6.684;2024-01-11T03:05:03;30.57;;;14.40;;
19339;SDS011;9804;52.350;6.684;2024-01-11T03:07:28;32.77;;;14.27;;
19339;SDS011;9804;52.350;6.684;2024-01-11T03:09:55;32.00;;;13.93;;
19339;SDS011;9804;52.350;6.684;2024-01-11T03:12:21;32.53;;;15.20;;
19339;SDS011;9804;52.350;6.684;2024-01-11T03:14:47;32.80;;;15.43;;
19339;SDS011;9804;52.350;6.684;2024-01-11T03:17:12;35.30;;;15.90;;
19339;SDS011;9804;52.350;6.684;2024-01-11T03:19:41;38.00;;;16.07;;
19339;SDS011;9804;52.350;6.684;2024-01-11T03:22:06;37.80;;;16.20;;
19339;SDS011;9804;52.350;6.684;2024-01-11T03:24:32;32.83;;;16.33;;
19339;SDS011;9804;52.350;6.684;2024-01-11T03:26:58;34.07;;;17.07;;
19339;SDS011;9804;52.350;6.684;2024-01-11T03:29:23;40.20;;;16.90;;
19339;SDS011;9804;52.350;6.684;2024-01-11T03:31:49;34.67;;;17.20;;
19339;SDS011;9804;52.350;6.684;2024-01-11T03:34:14;36.17;;;17.33;;
19339;SDS011;9804;52.350;6.684;2024-01-11T03:36:40;38.60;;;17.50;;
19339;SDS011;9804;52.350;6.684;2024-01-11T03:39:05;36.70;;;17.73;;
19339;SDS011;9804;52.350;6.684;2024-01-11T03:41:31;37.50;;;17.13;;
19339;SDS011;9804;52.350;6.684;2024-01-11T03:43:56;37.33;;;16.90;;
19339;SDS011;9804;52.350;6.684;2024-01-11T03:46:22;35.43;;;16.67;;
19339;SDS011;9804;52.350;6.684;2024-01-11T03:48:47;34.03;;;16.73;;
19339;SDS011;9804;52.350;6.684;2024-01-11T03:51:13;40.60;;;18.07;;
19339;SDS011;9804;52.350;6.684;2024-01-11T03:53:38;39.40;;;17.97;;
19339;SDS011;9804;52.350;6.684;2024-01-11T03:56:04;42.57;;;18.57;;
19339;SDS011;9804;52.350;6.684;2024-01-11T03:58:30;38.87;;;17.63;;
19339;SDS011;9804;52.350;6.684;2024-01-11T04:00:55;38.47;;;18.37;;
19339;SDS011;9804;52.350;6.684;2024-01-11T04:03:21;42.57;;;18.93;;
19339;SDS011;9804;52.350;6.684;2024-01-11T04:05:46;43.63;;;19.90;;
19339;SDS011;9804;52.350;6.684;2024-01-11T04:08:11;44.03;;;19.77;;
19339;SDS011;9804;52.350;6.684;2024-01-11T04:10:37;41.60;;;18.93;;
19339;SDS011;9804;52.350;6.684;2024-01-11T04:13:03;42.80;;;20.23;;
19339;SDS011;9804;52.350;6.684;2024-01-11T04:15:28;40.47;;;19.27;;
19339;SDS011;9804;52.350;6.684;2024-01-11T04:17:54;45.67;;;20.20;;
19339;SDS011;9804;52.350;6.684;2024-01-11T04:20:19;42.10;;;19.37;;
19339;SDS011;9804;52.350;6.684;2024-01-11T04:22:45;41.27;;;19.77;;
19339;SDS011;9804;52.350;6.684;2024-01-11T04:25:10;39.23;;;18.93;;
19339;SDS011;9804;52.350;6.684;2024-01-11T04:27:36;41.57;;;20.93;;
19339;SDS011;9804;52.350;6.684;2024-01-11T04:30:02;39.70;;;19.27;;
19339;SDS011;9804;52.350;6.684;2024-01-11T04:32:27;37.47;;;19.93;;
19339;SDS011;9804;52.350;6.684;2024-01-11T04:34:53;44.10;;;20.20;;
19339;SDS011;9804;52.350;6.684;2024-01-11T04:37:18;40.37;;;19.40;;
19339;SDS011;9804;52.350;6.684;2024-01-11T04:39:44;39.17;;;19.77;;
19339;SDS011;9804;52.350;6.684;2024-01-11T04:42:09;41.83;;;19.63;;
19339;SDS011;9804;52.350;6.684;2024-01-11T04:44:35;38.20;;;18.30;;
19339;SDS011;9804;52.350;6.684;2024-01-11T04:47:00;44.37;;;19.37;;
19339;SDS011;9804;52.350;6.684;2024-01-11T04:49:26;40.07;;;18.27;;
19339;SDS011;9804;52.350;6.684;2024-01-11T04:51:51;39.23;;;18.67;;
19339;SDS011;9804;52.350;6.684;2024-01-11T04:54:16;40.37;;;19.03;;
19339;SDS011;9804;52.350;6.684;2024-01-11T04:56:42;39.07;;;19.27;;
19339;SDS011;9804;52.350;6.684;2024-01-11T04:59:07;40.03;;;18.73;;
19339;SDS011;9804;52.350;6.684;2024-01-11T05:01:33;37.90;;;18.33;;
19339;SDS011;9804;52.350;6.684;2024-01-11T05:03:58;36.70;;;17.80;;
19339;SDS011;9804;52.350;6.684;2024-01-11T05:06:23;41.07;;;18.80;;
19339;SDS011;9804;52.350;6.684;2024-01-11T05:08:50;43.50;;;19.03;;
19339;SDS011;9804;52.350;6.684;2024-01-11T05:11:22;42.97;;;19.47;;
19339;SDS011;9804;52.350;6.684;2024-01-11T05:13:51;38.37;;;18.67;;
19339;SDS011;9804;52.350;6.684;2024-01-11T05:16:18;40.13;;;19.13;;
19339;SDS011;9804;52.350;6.684;2024-01-11T05:18:51;39.63;;;19.07;;
19339;SDS011;9804;52.350;6.684;2024-01-11T05:21:17;42.53;;;19.23;;
19339;SDS011;9804;52.350;6.684;2024-01-11T05:23:43;40.27;;;18.53;;
19339;SDS011;9804;52.350;6.684;2024-01-11T05:26:09;39.97;;;19.40;;
19339;SDS011;9804;52.350;6.684;2024-01-11T05:28:35;38.47;;;19.37;;
19339;SDS011;9804;52.350;6.684;2024-01-11T05:31:00;44.30;;;20.13;;
19339;SDS011;9804;52.350;6.684;2024-01-11T05:33:26;45.47;;;19.73;;
19339;SDS011;9804;52.350;6.684;2024-01-11T05:35:51;41.33;;;19.90;;
19339;SDS011;9804;52.350;6.684;2024-01-11T05:38:18;44.00;;;19.70;;
19339;SDS011;9804;52.350;6.684;2024-01-11T05:40:44;38.23;;;19.47;;
19339;SDS011;9804;52.350;6.684;2024-01-11T05:43:10;44.97;;;20.43;;
19339;SDS011;9804;52.350;6.684;2024-01-11T05:45:35;38.63;;;18.20;;
19339;SDS011;9804;52.350;6.684;2024-01-11T05:48:01;47.43;;;20.73;;
19339;SDS011;9804;52.350;6.684;2024-01-11T05:50:26;42.53;;;21.30;;
19339;SDS011;9804;52.350;6.684;2024-01-11T05:52:52;40.77;;;19.57;;
19339;SDS011;9804;52.350;6.684;2024-01-11T05:55:19;47.17;;;21.47;;
19339;SDS011;9804;52.350;6.684;2024-01-11T05:57:45;46.77;;;22.73;;
19339;SDS011;9804;52.350;6.684;2024-01-11T06:00:11;50.13;;;23.10;;
19339;SDS011;9804;52.350;6.684;2024-01-11T06:02:36;53.47;;;23.80;;
19339;SDS011;9804;52.350;6.684;2024-01-11T06:05:03;53.20;;;24.27;;
19339;SDS011;9804;52.350;6.684;2024-01-11T06:07:28;52.03;;;24.77;;
19339;SDS011;9804;52.350;6.684;2024-01-11T06:09:54;47.33;;;24.67;;
19339;SDS011;9804;52.350;6.684;2024-01-11T06:12:19;54.17;;;25.83;;
19339;SDS011;9804;52.350;6.684;2024-01-11T06:14:45;49.40;;;24.20;;
19339;SDS011;9804;52.350;6.684;2024-01-11T06:17:11;53.00;;;25.23;;
19339;SDS011;9804;52.350;6.684;2024-01-11T06:19:37;54.67;;;26.80;;
19339;SDS011;9804;52.350;6.684;2024-01-11T06:22:03;48.63;;;24.60;;
19339;SDS011;9804;52.350;6.684;2024-01-11T06:24:30;59.57;;;26.70;;
19339;SDS011;9804;52.350;6.684;2024-01-11T06:26:55;55.17;;;26.30;;
19339;SDS011;9804;52.350;6.684;2024-01-11T06:29:21;51.60;;;25.83;;
19339;SDS011;9804;52.350;6.684;2024-01-11T06:31:46;53.60;;;25.87;;
19339;SDS011;9804;52.350;6.684;2024-01-11T06:34:11;53.77;;;25.40;;
19339;SDS011;9804;52.350;6.684;2024-01-11T06:36:37;52.97;;;25.40;;
19339;SDS011;9804;52.350;6.684;2024-01-11T06:39:02;47.77;;;24.87;;
19339;SDS011;9804;52.350;6.684;2024-01-11T06:41:29;51.47;;;23.77;;
19339;SDS011;9804;52.350;6.684;2024-01-11T06:43:54;51.57;;;25.07;;
19339;SDS011;9804;52.350;6.684;2024-01-11T06:46:20;52.07;;;24.30;;
19339;SDS011;9804;52.350;6.684;2024-01-11T06:48:47;52.20;;;25.60;;
19339;SDS011;9804;52.350;6.684;2024-01-11T06:51:16;50.43;;;24.80;;
19339;SDS011;9804;52.350;6.684;2024-01-11T06:53:42;48.03;;;24.60;;
19339;SDS011;9804;52.350;6.684;2024-01-11T06:56:14;53.73;;;25.30;;
19339;SDS011;9804;52.350;6.684;2024-01-11T06:58:46;50.87;;;24.20;;
19339;SDS011;9804;52.350;6.684;2024-01-11T07:01:11;52.60;;;25.70;;
19339;SDS011;9804;52.350;6.684;2024-01-11T07:03:38;54.17;;;25.50;;
19339;SDS011;9804;52.350;6.684;2024-01-11T07:06:04;59.50;;;26.50;;
19339;SDS011;9804;52.350;6.684;2024-01-11T07:08:29;56.70;;;27.33;;
19339;SDS011;9804;52.350;6.684;2024-01-11T07:10:55;53.53;;;26.10;;
19339;SDS011;9804;52.350;6.684;2024-01-11T07:13:21;57.53;;;27.40;;
19339;SDS011;9804;52.350;6.684;2024-01-11T07:15:47;58.60;;;27.70;;
19339;SDS011;9804;52.350;6.684;2024-01-11T07:18:13;52.70;;;25.80;;
19339;SDS011;9804;52.350;6.684;2024-01-11T07:20:39;62.20;;;28.20;;
19339;SDS011;9804;52.350;6.684;2024-01-11T07:23:05;61.03;;;29.17;;
19339;SDS011;9804;52.350;6.684;2024-01-11T07:25:30;57.93;;;28.00;;
19339;SDS011;9804;52.350;6.684;2024-01-11T07:27:55;74.27;;;31.70;;
19339;SDS011;9804;52.350;6.684;2024-01-11T07:30:21;73.40;;;31.03;;
19339;SDS011;9804;52.350;6.684;2024-01-11T07:32:46;69.67;;;30.93;;
19339;SDS011;9804;52.350;6.684;2024-01-11T07:35:12;65.90;;;30.43;;
19339;SDS011;9804;52.350;6.684;2024-01-11T07:37:39;67.37;;;31.50;;
19339;SDS011;9804;52.350;6.684;2024-01-11T07:40:05;71.27;;;31.97;;
19339;SDS011;9804;52.350;6.684;2024-01-11T07:42:36;73.40;;;32.97;;
19339;SDS011;9804;52.350;6.684;2024-01-11T07:45:03;74.63;;;33.17;;
19339;SDS011;9804;52.350;6.684;2024-01-11T07:47:30;75.63;;;32.97;;
19339;SDS011;9804;52.350;6.684;2024-01-11T07:49:55;72.37;;;32.80;;
19339;SDS011;9804;52.350;6.684;2024-01-11T07:52:21;70.47;;;31.90;;
19339;SDS011;9804;52.350;6.684;2024-01-11T07:54:46;79.43;;;33.37;;
19339;SDS011;9804;52.350;6.684;2024-01-11T07:57:12;76.70;;;33.57;;
19339;SDS011;9804;52.350;6.684;2024-01-11T07:59:37;72.23;;;32.50;;
19339;SDS011;9804;52.350;6.684;2024-01-11T08:02:03;72.90;;;32.83;;
19339;SDS011;9804;52.350;6.684;2024-01-11T08:04:28;80.30;;;34.10;;
19339;SDS011;9804;52.350;6.684;2024-01-11T08:06:54;75.97;;;32.70;;
19339;SDS011;9804;52.350;6.684;2024-01-11T08:09:20;79.23;;;33.93;;
19339;SDS011;9804;52.350;6.684;2024-01-11T08:11:45;78.57;;;33.60;;
19339;SDS011;9804;52.350;6.684;2024-01-11T08:14:11;70.77;;;26.23;;
19339;SDS011;9804;52.350;6.684;2024-01-11T08:16:37;69.13;;;25.17;;
19339;SDS011;9804;52.350;6.684;2024-01-11T08:19:02;41.53;;;15.60;;
19339;SDS011;9804;52.350;6.684;2024-01-11T08:21:28;58.50;;;22.00;;
19339;SDS011;9804;52.350;6.684;2024-01-11T08:23:53;62.07;;;22.43;;
19339;SDS011;9804;52.350;6.684;2024-01-11T08:26:20;53.80;;;19.03;;
19339;SDS011;9804;52.350;6.684;2024-01-11T08:28:46;57.13;;;18.53;;
19339;SDS011;9804;52.350;6.684;2024-01-11T08:31:12;63.57;;;19.00;;
19339;SDS011;9804;52.350;6.684;2024-01-11T08:33:38;63.20;;;17.20;;
19339;SDS011;9804;52.350;6.684;2024-01-11T08:36:04;63.57;;;17.43;;
19339;SDS011;9804;52.350;6.684;2024-01-11T08:38:30;55.53;;;17.37;;
19339;SDS011;9804;52.350;6.684;2024-01-11T08:40:55;60.07;;;17.17;;
19339;SDS011;9804;52.350;6.684;2024-01-11T08:43:21;67.17;;;19.37;;
19339;SDS011;9804;52.350;6.684;2024-01-11T08:45:46;57.07;;;17.40;;
19339;SDS011;9804;52.350;6.684;2024-01-11T08:48:12;62.30;;;17.97;;
19339;SDS011;9804;52.350;6.684;2024-01-11T08:50:38;52.77;;;18.27;;
19339;SDS011;9804;52.350;6.684;2024-01-11T08:53:03;55.30;;;17.40;;
19339;SDS011;9804;52.350;6.684;2024-01-11T08:55:29;59.37;;;17.73;;
19339;SDS011;9804;52.350;6.684;2024-01-11T08:57:54;56.47;;;17.77;;
19339;SDS011;9804;52.350;6.684;2024-01-11T09:00:20;58.20;;;16.50;;
19339;SDS011;9804;52.350;6.684;2024-01-11T09:02:45;57.30;;;18.90;;
19339;SDS011;9804;52.350;6.684;2024-01-11T09:05:11;53.60;;;17.27;;
19339;SDS011;9804;52.350;6.684;2024-01-11T09:07:38;57.10;;;17.17;;
19339;SDS011;9804;52.350;6.684;2024-01-11T09:10:04;66.70;;;17.83;;
19339;SDS011;9804;52.350;6.684;2024-01-11T09:12:30;62.30;;;16.60;;
19339;SDS011;9804;52.350;6.684;2024-01-11T09:14:55;65.20;;;18.07;;
19339;SDS011;9804;52.350;6.684;2024-01-11T09:17:20;63.67;;;18.80;;
19339;SDS011;9804;52.350;6.684;2024-01-11T09:19:46;56.13;;;18.43;;
19339;SDS011;9804;52.350;6.684;2024-01-11T09:22:12;70.87;;;18.63;;
19339;SDS011;9804;52.350;6.684;2024-01-11T09:24:37;55.10;;;18.40;;
19339;SDS011;9804;52.350;6.684;2024-01-11T09:27:03;81.77;;;20.47;;
19339;SDS011;9804;52.350;6.684;2024-01-11T09:29:29;62.47;;;19.80;;
19339;SDS011;9804;52.350;6.684;2024-01-11T09:31:55;70.13;;;20.80;;
19339;SDS011;9804;52.350;6.684;2024-01-11T09:34:20;56.07;;;20.27;;
19339;SDS011;9804;52.350;6.684;2024-01-11T09:36:45;63.83;;;21.23;;
19339;SDS011;9804;52.350;6.684;2024-01-11T09:39:11;65.87;;;21.07;;
19339;SDS011;9804;52.350;6.684;2024-01-11T09:41:38;62.23;;;21.87;;
19339;SDS011;9804;52.350;6.684;2024-01-11T09:44:08;67.23;;;22.10;;
19339;SDS011;9804;52.350;6.684;2024-01-11T09:46:34;62.10;;;22.20;;
19339;SDS011;9804;52.350;6.684;2024-01-11T09:48:59;77.80;;;23.77;;
19339;SDS011;9804;52.350;6.684;2024-01-11T09:51:28;80.67;;;23.27;;
19339;SDS011;9804;52.350;6.684;2024-01-11T09:53:55;66.97;;;23.87;;
19339;SDS011;9804;52.350;6.684;2024-01-11T09:56:21;71.13;;;23.27;;
19339;SDS011;9804;52.350;6.684;2024-01-11T09:58:49;77.43;;;22.97;;
19339;SDS011;9804;52.350;6.684;2024-01-11T10:01:15;98.20;;;25.43;;
19339;SDS011;9804;52.350;6.684;2024-01-11T10:03:41;76.30;;;24.30;;
19339;SDS011;9804;52.350;6.684;2024-01-11T10:06:11;71.93;;;22.63;;
19339;SDS011;9804;52.350;6.684;2024-01-11T10:08:38;58.80;;;23.20;;
19339;SDS011;9804;52.350;6.684;2024-01-11T10:11:04;70.90;;;22.80;;
19339;SDS011;9804;52.350;6.684;2024-01-11T10:13:30;62.53;;;21.90;;
19339;SDS011;9804;52.350;6.684;2024-01-11T10:16:10;76.57;;;23.03;;
19339;SDS011;9804;52.350;6.684;2024-01-11T10:18:40;82.40;;;24.07;;
19339;SDS011;9804;52.350;6.684;2024-01-11T10:21:09;70.10;;;23.93;;
19339;SDS011;9804;52.350;6.684;2024-01-11T10:23:35;75.30;;;23.47;;
19339;SDS011;9804;52.350;6.684;2024-01-11T10:26:01;75.63;;;23.10;;
19339;SDS011;9804;52.350;6.684;2024-01-11T10:28:27;64.77;;;23.50;;
19339;SDS011;9804;52.350;6.684;2024-01-11T10:30:53;80.17;;;24.50;;
19339;SDS011;9804;52.350;6.684;2024-01-11T10:33:19;83.13;;;26.00;;
19339;SDS011;9804;52.350;6.684;2024-01-11T10:35:49;76.27;;;23.83;;
19339;SDS011;9804;52.350;6.684;2024-01-11T10:38:17;73.70;;;23.80;;
19339;SDS011;9804;52.350;6.684;2024-01-11T10:40:43;79.97;;;22.37;;
19339;SDS011;9804;52.350;6.684;2024-01-11T10:43:09;83.10;;;24.20;;
19339;SDS011;9804;52.350;6.684;2024-01-11T10:45:36;80.17;;;23.40;;
19339;SDS011;9804;52.350;6.684;2024-01-11T10:48:06;76.63;;;24.50;;
19339;SDS011;9804;52.350;6.684;2024-01-11T10:50:34;71.93;;;23.77;;
19339;SDS011;9804;52.350;6.684;2024-01-11T10:56:05;76.13;;;25.37;;
19339;SDS011;9804;52.350;6.684;2024-01-11T10:58:34;73.70;;;24.57;;
19339;SDS011;9804;52.350;6.684;2024-01-11T11:01:00;74.27;;;25.03;;
19339;SDS011;9804;52.350;6.684;2024-01-11T11:03:27;71.40;;;23.20;;
19339;SDS011;9804;52.350;6.684;2024-01-11T11:05:54;67.43;;;22.93;;
19339;SDS011;9804;52.350;6.684;2024-01-11T11:08:23;75.83;;;24.93;;
19339;SDS011;9804;52.350;6.684;2024-01-11T11:10:50;69.97;;;23.07;;
19339;SDS011;9804;52.350;6.684;2024-01-11T11:13:19;68.50;;;24.63;;
19339;SDS011;9804;52.350;6.684;2024-01-11T11:15:52;68.77;;;24.00;;
19339;SDS011;9804;52.350;6.684;2024-01-11T11:18:19;66.60;;;23.47;;
19339;SDS011;9804;52.350;6.684;2024-01-11T11:20:45;71.73;;;24.23;;
19339;SDS011;9804;52.350;6.684;2024-01-11T11:23:14;74.80;;;26.50;;
19339;SDS011;9804;52.350;6.684;2024-01-11T11:25:42;84.83;;;27.40;;
19339;SDS011;9804;52.350;6.684;2024-01-11T11:28:12;76.50;;;25.80;;
19339;SDS011;9804;52.350;6.684;2024-01-11T11:30:43;72.10;;;25.40;;
19339;SDS011;9804;52.350;6.684;2024-01-11T11:33:19;74.20;;;26.10;;
19339;SDS011;9804;52.350;6.684;2024-01-11T11:35:47;70.07;;;24.10;;
19339;SDS011;9804;52.350;6.684;2024-01-11T11:38:23;80.70;;;27.00;;
19339;SDS011;9804;52.350;6.684;2024-01-11T11:40:51;71.10;;;24.70;;
19339;SDS011;9804;52.350;6.684;2024-01-11T11:43:18;74.03;;;25.47;;
19339;SDS011;9804;52.350;6.684;2024-01-11T11:45:46;70.37;;;24.77;;
19339;SDS011;9804;52.350;6.684;2024-01-11T11:48:57;69.73;;;25.37;;
19339;SDS011;9804;52.350;6.684;2024-01-11T11:51:16;66.07;;;22.20;;
19339;SDS011;9804;52.350;6.684;2024-01-11T11:53:46;63.77;;;23.83;;
19339;SDS011;9804;52.350;6.684;2024-01-11T11:56:13;62.30;;;22.97;;
19339;SDS011;9804;52.350;6.684;2024-01-11T11:58:41;65.27;;;22.87;;
19339;SDS011;9804;52.350;6.684;2024-01-11T12:01:11;62.10;;;23.30;;
19339;SDS011;9804;52.350;6.684;2024-01-11T12:03:37;63.30;;;22.37;;
19339;SDS011;9804;52.350;6.684;2024-01-11T12:06:05;66.57;;;22.93;;
19339;SDS011;9804;52.350;6.684;2024-01-11T12:08:33;61.77;;;23.07;;
19339;SDS011;9804;52.350;6.684;2024-01-11T12:10:58;69.67;;;24.30;;
19339;SDS011;9804;52.350;6.684;2024-01-11T12:13:24;72.37;;;22.83;;
19339;SDS011;9804;52.350;6.684;2024-01-11T12:15:50;60.87;;;22.83;;
19339;SDS011;9804;52.350;6.684;2024-01-11T12:18:16;61.27;;;23.70;;
19339;SDS011;9804;52.350;6.684;2024-01-11T12:20:41;62.70;;;22.57;;
19339;SDS011;9804;52.350;6.684;2024-01-11T12:23:07;62.77;;;23.10;;
19339;SDS011;9804;52.350;6.684;2024-01-11T12:25:33;60.13;;;23.57;;
19339;SDS011;9804;52.350;6.684;2024-01-11T12:27:58;57.77;;;22.83;;
19339;SDS011;9804;52.350;6.684;2024-01-11T12:30:25;54.30;;;22.13;;
19339;SDS011;9804;52.350;6.684;2024-01-11T12:32:51;62.83;;;22.87;;
19339;SDS011;9804;52.350;6.684;2024-01-11T12:35:17;63.10;;;23.60;;
19339;SDS011;9804;52.350;6.684;2024-01-11T12:37:55;57.43;;;22.33;;
19339;SDS011;9804;52.350;6.684;2024-01-11T12:40:23;61.67;;;23.43;;
19339;SDS011;9804;52.350;6.684;2024-01-11T12:42:49;64.03;;;24.27;;
19339;SDS011;9804;52.350;6.684;2024-01-11T12:45:15;58.73;;;22.20;;
19339;SDS011;9804;52.350;6.684;2024-01-11T12:47:41;57.03;;;23.00;;
19339;SDS011;9804;52.350;6.684;2024-01-11T12:50:07;52.53;;;21.90;;
19339;SDS011;9804;52.350;6.684;2024-01-11T12:52:32;53.43;;;21.27;;
19339;SDS011;9804;52.350;6.684;2024-01-11T12:54:58;56.23;;;23.10;;
19339;SDS011;9804;52.350;6.684;2024-01-11T12:57:23;53.40;;;21.67;;
19339;SDS011;9804;52.350;6.684;2024-01-11T12:59:49;55.57;;;21.63;;
19339;SDS011;9804;52.350;6.684;2024-01-11T13:02:15;53.67;;;20.70;;
19339;SDS011;9804;52.350;6.684;2024-01-11T13:04:44;56.60;;;21.60;;
19339;SDS011;9804;52.350;6.684;2024-01-11T13:07:11;57.03;;;21.67;;
19339;SDS011;9804;52.350;6.684;2024-01-11T13:09:37;51.47;;;20.73;;
19339;SDS011;9804;52.350;6.684;2024-01-11T13:12:03;51.23;;;20.27;;
19339;SDS011;9804;52.350;6.684;2024-01-11T13:14:29;50.47;;;19.67;;
19339;SDS011;9804;52.350;6.684;2024-01-11T13:16:54;53.97;;;20.30;;
19339;SDS011;9804;52.350;6.684;2024-01-11T13:19:20;53.03;;;20.13;;
19339;SDS011;9804;52.350;6.684;2024-01-11T13:21:45;51.83;;;20.57;;
19339;SDS011;9804;52.350;6.684;2024-01-11T13:24:11;51.10;;;20.27;;
19339;SDS011;9804;52.350;6.684;2024-01-11T13:26:38;52.10;;;20.63;;
19339;SDS011;9804;52.350;6.684;2024-01-11T13:29:04;50.97;;;20.73;;
19339;SDS011;9804;52.350;6.684;2024-01-11T13:31:30;48.00;;;19.30;;
19339;SDS011;9804;52.350;6.684;2024-01-11T13:33:56;52.23;;;20.77;;
19339;SDS011;9804;52.350;6.684;2024-01-11T13:36:22;51.03;;;19.43;;
19339;SDS011;9804;52.350;6.684;2024-01-11T13:38:48;52.57;;;20.60;;
19339;SDS011;9804;52.350;6.684;2024-01-11T13:41:18;54.50;;;21.57;;
19339;SDS011;9804;52.350;6.684;2024-01-11T13:43:43;45.53;;;19.27;;
19339;SDS011;9804;52.350;6.684;2024-01-11T13:46:09;47.13;;;20.00;;
19339;SDS011;9804;52.350;6.684;2024-01-11T13:48:36;49.37;;;20.47;;
19339;SDS011;9804;52.350;6.684;2024-01-11T13:51:03;52.83;;;20.90;;
19339;SDS011;9804;52.350;6.684;2024-01-11T13:53:29;46.73;;;20.30;;
19339;SDS011;9804;52.350;6.684;2024-01-11T13:55:55;49.53;;;19.83;;
19339;SDS011;9804;52.350;6.684;2024-01-11T13:58:20;43.57;;;18.33;;
19339;SDS011;9804;52.350;6.684;2024-01-11T14:00:46;41.23;;;17.13;;
19339;SDS011;9804;52.350;6.684;2024-01-11T14:03:12;43.93;;;18.40;;
19339;SDS011;9804;52.350;6.684;2024-01-11T14:05:37;47.03;;;18.37;;
19339;SDS011;9804;52.350;6.684;2024-01-11T14:08:03;48.13;;;19.63;;
19339;SDS011;9804;52.350;6.684;2024-01-11T14:10:31;48.37;;;20.93;;
19339;SDS011;9804;52.350;6.684;2024-01-11T14:12:58;46.50;;;18.83;;
19339;SDS011;9804;52.350;6.684;2024-01-11T14:15:24;43.27;;;17.93;;
19339;SDS011;9804;52.350;6.684;2024-01-11T14:17:50;47.77;;;18.47;;
19339;SDS011;9804;52.350;6.684;2024-01-11T14:20:16;42.63;;;18.00;;
19339;SDS011;9804;52.350;6.684;2024-01-11T14:22:42;43.83;;;18.60;;
19339;SDS011;9804;52.350;6.684;2024-01-11T14:25:12;48.00;;;18.63;;
19339;SDS011;9804;52.350;6.684;2024-01-11T14:27:38;42.03;;;17.43;;
19339;SDS011;9804;52.350;6.684;2024-01-11T14:30:04;42.63;;;18.10;;
19339;SDS011;9804;52.350;6.684;2024-01-11T14:32:31;41.67;;;17.40;;